createdAt,value
2019-04-27T00:01:00.352Z,13.50
2019-04-27T00:03:41.298Z,13.50
2019-04-27T00:06:14.605Z,13.50
2019-04-27T00:09:03.503Z,13.50
2019-04-27T00:11:37.385Z,13.50
2019-04-27T00:14:04.427Z,13.40
2019-04-27T00:16:47.059Z,13.40
2019-04-27T00:19:35.296Z,13.40
2019-04-27T00:22:03.481Z,13.30
2019-04-27T00:24:33.577Z,13.30
2019-04-27T00:27:03.286Z,13.20
2019-04-27T00:29:33.170Z,13.10
2019-04-27T00:32:04.118Z,13.10
2019-04-27T00:34:33.990Z,13.10
2019-04-27T00:37:19.547Z,13.10
2019-04-27T00:39:56.325Z,13.00
2019-04-27T00:42:25.090Z,13.00
2019-04-27T00:44:54.232Z,13.00
2019-04-27T00:47:25.097Z,13.00
2019-04-27T00:49:54.976Z,13.00
2019-04-27T00:52:24.130Z,12.90
2019-04-27T00:54:53.929Z,12.90
2019-04-27T00:57:24.586Z,12.90
2019-04-27T01:00:01.009Z,12.80
2019-04-27T01:02:35.439Z,12.80
2019-04-27T01:05:06.823Z,12.80
2019-04-27T01:07:35.559Z,12.70
2019-04-27T01:10:07.167Z,12.80
2019-04-27T01:12:35.043Z,12.80
2019-04-27T01:15:05.849Z,12.70
2019-04-27T01:17:34.788Z,12.70
2019-04-27T01:20:04.309Z,12.70
2019-04-27T01:22:33.236Z,12.70
2019-04-27T01:25:01.943Z,12.70
2019-04-27T01:27:39.385Z,12.60
2019-04-27T01:30:10.471Z,12.60
2019-04-27T01:32:39.306Z,12.60
2019-04-27T01:35:08.636Z,12.60
2019-04-27T01:37:38.690Z,12.60
2019-04-27T01:40:09.719Z,12.60
2019-04-27T01:42:39.533Z,12.50
2019-04-27T01:45:08.891Z,12.50
2019-04-27T01:47:39.157Z,12.50
2019-04-27T01:50:08.812Z,12.50
2019-04-27T01:52:38.535Z,12.50
2019-04-27T01:55:08.635Z,12.50
2019-04-27T01:57:38.668Z,12.50
2019-04-27T02:00:30.335Z,12.50
2019-04-27T02:03:00.717Z,12.40
2019-04-27T02:05:43.232Z,12.40
2019-04-27T02:08:11.977Z,12.40
2019-04-27T02:10:40.832Z,12.40
2019-04-27T02:13:09.562Z,12.30
2019-04-27T02:15:39.569Z,12.30
2019-04-27T02:18:09.473Z,12.20
2019-04-27T02:20:38.814Z,12.20
2019-04-27T02:23:09.129Z,12.20
2019-04-27T02:25:39.611Z,12.10
2019-04-27T02:28:21.697Z,12.10
2019-04-27T02:30:58.144Z,12.10
2019-04-27T02:33:34.533Z,12.10
2019-04-27T02:36:03.265Z,12.00
2019-04-27T02:38:32.026Z,12.00
2019-04-27T02:41:02.375Z,12.10
2019-04-27T02:43:32.691Z,12.10
2019-04-27T02:46:01.670Z,12.10
2019-04-27T02:48:30.400Z,12.10
2019-04-27T02:51:00.777Z,12.10
2019-04-27T02:53:49.765Z,12.10
2019-04-27T02:56:20.165Z,12.10
2019-04-27T02:58:49.585Z,12.10
2019-04-27T03:01:20.068Z,12.10
2019-04-27T03:03:50.297Z,12.00
2019-04-27T03:06:19.882Z,12.00
2019-04-27T03:08:52.910Z,12.00
2019-04-27T03:11:20.492Z,11.90
2019-04-27T03:13:54.210Z,11.90
2019-04-27T03:16:30.560Z,11.90
2019-04-27T03:19:20.950Z,11.90
2019-04-27T03:21:55.209Z,12.00
2019-04-27T03:24:29.550Z,12.10
2019-04-27T03:27:00.753Z,12.10
2019-04-27T03:29:30.654Z,12.20
2019-04-27T03:32:01.881Z,12.20
2019-04-27T03:34:32.000Z,12.30
2019-04-27T03:37:00.509Z,12.40
2019-04-27T03:39:29.964Z,12.40
2019-04-27T03:42:00.239Z,12.50
2019-04-27T03:44:32.043Z,12.60
2019-04-27T03:46:59.824Z,12.60
2019-04-27T03:49:37.509Z,12.70
2019-04-27T03:52:03.011Z,12.70
2019-04-27T03:54:35.603Z,12.70
2019-04-27T03:57:05.967Z,12.80
2019-04-27T03:59:36.769Z,12.90
2019-04-27T04:02:05.563Z,13.00
2019-04-27T04:04:34.312Z,13.10
2019-04-27T04:07:09.724Z,13.10
2019-04-27T04:09:42.827Z,13.20
2019-04-27T04:12:15.826Z,13.10
2019-04-27T04:14:44.617Z,13.10
2019-04-27T04:17:15.577Z,13.10
2019-04-27T04:19:53.870Z,13.30
2019-04-27T04:22:19.819Z,13.40
2019-04-27T04:24:46.619Z,13.60
2019-04-27T04:27:15.505Z,13.70
2019-04-27T04:29:46.493Z,13.80
2019-04-27T04:32:15.257Z,13.80
2019-04-27T04:34:43.976Z,14.00
2019-04-27T04:37:12.772Z,14.10
2019-04-27T04:39:41.575Z,14.20
2019-04-27T04:42:11.980Z,14.30
2019-04-27T04:44:42.336Z,14.40
2019-04-27T04:47:12.709Z,14.50
2019-04-27T04:49:41.509Z,14.60
2019-04-27T04:52:12.416Z,14.80
2019-04-27T04:54:43.958Z,14.80
2019-04-27T04:57:14.277Z,14.90
2019-04-27T04:59:43.896Z,15.00
2019-04-27T05:02:12.825Z,15.10
2019-04-27T05:04:41.511Z,15.20
2019-04-27T05:07:10.244Z,15.30
2019-04-27T05:09:41.351Z,15.30
2019-04-27T05:12:11.286Z,15.40
2019-04-27T05:14:41.661Z,15.40
2019-04-27T05:17:10.388Z,15.60
2019-04-27T05:19:43.335Z,15.70
2019-04-27T05:22:12.056Z,15.80
2019-04-27T05:24:40.871Z,15.90
2019-04-27T05:27:09.616Z,16.10
2019-04-27T05:29:38.977Z,16.20
2019-04-27T05:32:09.122Z,16.40
2019-04-27T05:34:39.472Z,16.50
2019-04-27T05:37:08.917Z,16.60
2019-04-27T05:39:38.948Z,16.70
2019-04-27T05:42:12.557Z,16.90
2019-04-27T05:44:59.054Z,17.00
2019-04-27T05:47:29.512Z,17.20
2019-04-27T05:49:59.885Z,17.30
2019-04-27T05:52:29.512Z,17.30
2019-04-27T05:55:00.332Z,17.40
2019-04-27T05:57:31.460Z,17.40
2019-04-27T06:00:02.290Z,17.40
2019-04-27T06:02:30.563Z,17.60
2019-04-27T06:05:00.064Z,17.60
2019-04-27T06:07:29.684Z,17.70
2019-04-27T06:09:59.903Z,17.90
2019-04-27T06:12:29.716Z,17.90
2019-04-27T06:14:59.975Z,18.10
2019-04-27T06:17:29.817Z,18.10
2019-04-27T06:19:59.526Z,18.30
2019-04-27T06:22:29.363Z,18.30
2019-04-27T06:25:00.164Z,18.60
2019-04-27T06:27:30.533Z,18.70
2019-04-27T06:30:00.710Z,19.00
2019-04-27T06:32:30.698Z,19.10
2019-04-27T06:34:59.514Z,19.00
2019-04-27T06:37:29.344Z,19.00
2019-04-27T06:39:59.688Z,19.20
2019-04-27T06:42:29.665Z,19.40
2019-04-27T06:44:59.965Z,19.50
2019-04-27T06:47:29.467Z,19.60
2019-04-27T06:49:58.783Z,19.70
2019-04-27T06:52:29.215Z,19.80
2019-04-27T06:54:58.367Z,20.10
2019-04-27T06:57:29.226Z,20.20
2019-04-27T06:59:59.190Z,20.30
2019-04-27T07:02:29.095Z,20.30
2019-04-27T07:04:59.208Z,20.50
2019-04-27T07:07:29.429Z,20.70
2019-04-27T07:09:59.152Z,20.70
2019-04-27T07:12:28.811Z,20.70
2019-04-27T07:14:59.263Z,20.90
2019-04-27T07:17:28.984Z,20.90
2019-04-27T07:19:59.449Z,20.90
2019-04-27T07:22:29.816Z,21.00
2019-04-27T07:24:59.120Z,21.20
2019-04-27T07:27:29.175Z,21.10
2019-04-27T07:30:00.774Z,21.10
2019-04-27T07:32:29.201Z,21.20
2019-04-27T07:34:58.618Z,21.20
2019-04-27T07:37:29.266Z,21.30
2019-04-27T07:39:59.236Z,21.20
2019-04-27T07:42:30.252Z,21.20
2019-04-27T07:45:16.916Z,21.30
2019-04-27T07:47:46.509Z,21.20
2019-04-27T07:50:15.228Z,21.40
2019-04-27T07:52:43.968Z,21.70
2019-04-27T07:55:12.817Z,21.90
2019-04-27T07:57:41.536Z,21.90
2019-04-27T08:00:11.058Z,22.10
2019-04-27T08:02:39.787Z,22.10
2019-04-27T08:05:09.353Z,22.30
2019-04-27T08:07:39.128Z,22.30
2019-04-27T08:10:09.680Z,22.40
2019-04-27T08:12:38.712Z,22.40
2019-04-27T08:15:08.928Z,22.40
2019-04-27T08:17:38.319Z,22.60
2019-04-27T08:20:09.101Z,22.60
2019-04-27T08:22:38.946Z,22.60
2019-04-27T08:25:09.533Z,22.70
2019-04-27T08:27:46.239Z,22.80
2019-04-27T08:30:17.105Z,22.90
2019-04-27T08:32:49.556Z,23.10
2019-04-27T08:35:19.493Z,23.20
2019-04-27T08:37:49.495Z,23.30
2019-04-27T08:40:19.277Z,23.30
2019-04-27T08:42:49.164Z,23.30
2019-04-27T08:45:19.320Z,23.40
2019-04-27T08:47:49.738Z,23.40
2019-04-27T08:50:19.165Z,23.70
2019-04-27T08:52:50.142Z,23.60
2019-04-27T08:55:19.586Z,23.70
2019-04-27T08:57:49.010Z,23.70
2019-04-27T09:00:19.630Z,23.70
2019-04-27T09:02:50.281Z,23.60
2019-04-27T09:05:21.166Z,23.70
2019-04-27T09:07:50.817Z,23.70
2019-04-27T09:10:30.735Z,23.90
2019-04-27T09:13:10.353Z,24.00
2019-04-27T09:15:42.986Z,24.10
2019-04-27T09:18:13.444Z,24.20
2019-04-27T09:20:46.842Z,24.20
2019-04-27T09:23:15.662Z,24.40
2019-04-27T09:25:44.394Z,24.40
2019-04-27T09:28:13.115Z,24.40
2019-04-27T09:30:41.902Z,24.40
2019-04-27T09:33:14.973Z,24.40
2019-04-27T09:35:43.723Z,24.30
2019-04-27T09:38:12.447Z,24.30
2019-04-27T09:40:41.178Z,24.50
2019-04-27T09:43:09.919Z,24.70
2019-04-27T09:45:38.646Z,24.80
2019-04-27T09:48:07.365Z,24.70
2019-04-27T09:50:36.209Z,24.80
2019-04-27T09:53:06.420Z,24.90
2019-04-27T09:55:36.871Z,25.00
2019-04-27T09:58:05.909Z,24.90
2019-04-27T10:00:37.057Z,24.80
2019-04-27T10:03:06.582Z,24.70
2019-04-27T10:05:36.704Z,24.50
2019-04-27T10:08:06.377Z,24.50
2019-04-27T10:10:37.014Z,24.80
2019-04-27T10:13:06.990Z,25.00
2019-04-27T10:15:35.955Z,24.80
2019-04-27T10:18:06.084Z,24.80
2019-04-27T10:20:40.354Z,25.00
2019-04-27T10:23:06.254Z,25.10
2019-04-27T10:25:37.486Z,25.20
2019-04-27T10:28:06.801Z,25.20
2019-04-27T10:30:37.572Z,25.30
2019-04-27T10:33:08.152Z,25.30
2019-04-27T10:35:36.759Z,25.20
2019-04-27T10:38:05.476Z,25.20
2019-04-27T10:40:34.205Z,25.30
2019-04-27T10:43:02.938Z,25.10
2019-04-27T10:45:32.422Z,25.20
2019-04-27T10:48:01.156Z,25.40
2019-04-27T10:50:29.945Z,25.40
2019-04-27T10:52:59.295Z,25.40
2019-04-27T10:55:28.198Z,25.00
2019-04-27T10:57:56.915Z,25.00
2019-04-27T11:00:43.758Z,25.20
2019-04-27T11:03:14.140Z,25.30
2019-04-27T11:05:47.230Z,25.40
2019-04-27T11:08:16.710Z,25.40
2019-04-27T11:10:46.192Z,25.40
2019-04-27T11:13:16.607Z,25.60
2019-04-27T11:15:46.110Z,25.60
2019-04-27T11:18:16.705Z,25.50
2019-04-27T11:20:46.876Z,25.70
2019-04-27T11:23:16.439Z,25.70
2019-04-27T11:25:46.829Z,25.60
2019-04-27T11:28:15.817Z,25.40
2019-04-27T11:30:44.528Z,25.10
2019-04-27T11:33:18.005Z,25.00
2019-04-27T11:35:53.285Z,24.80
2019-04-27T11:38:22.039Z,24.80
2019-04-27T11:40:50.785Z,24.60
2019-04-27T11:43:19.516Z,24.70
2019-04-27T11:45:48.245Z,24.80
2019-04-27T11:48:16.989Z,24.90
2019-04-27T11:50:46.022Z,25.00
2019-04-27T11:53:22.770Z,24.80
2019-04-27T11:55:46.103Z,24.50
2019-04-27T11:58:16.371Z,24.40
2019-04-27T12:00:45.335Z,24.30
2019-04-27T12:03:14.136Z,24.20
2019-04-27T12:05:42.860Z,24.10
2019-04-27T12:08:11.592Z,24.10
2019-04-27T12:10:40.312Z,24.00
2019-04-27T12:13:09.040Z,24.00
2019-04-27T12:15:37.766Z,24.10
2019-04-27T12:18:08.844Z,24.20
2019-04-27T12:20:37.066Z,24.20
2019-04-27T12:23:06.563Z,24.20
2019-04-27T12:25:37.049Z,24.30
2019-04-27T12:28:10.170Z,24.30
2019-04-27T12:30:52.920Z,24.20
2019-04-27T12:33:21.823Z,24.20
2019-04-27T12:35:50.557Z,24.20
2019-04-27T12:38:19.584Z,24.30
2019-04-27T12:40:48.381Z,24.40
2019-04-27T12:43:17.124Z,24.10
2019-04-27T12:45:46.029Z,24.00
2019-04-27T12:48:14.996Z,23.80
2019-04-27T12:50:43.815Z,23.90
2019-04-27T12:53:14.184Z,24.10
2019-04-27T12:55:53.584Z,24.10
2019-04-27T12:58:23.951Z,23.80
2019-04-27T13:00:57.113Z,23.70
2019-04-27T13:03:26.255Z,23.70
2019-04-27T13:05:55.060Z,23.80
2019-04-27T13:08:25.843Z,23.60
2019-04-27T13:10:55.416Z,23.60
2019-04-27T13:13:26.834Z,23.60
2019-04-27T13:15:56.289Z,23.50
2019-04-27T13:18:26.731Z,23.60
2019-04-27T13:20:55.657Z,23.70
2019-04-27T13:23:24.489Z,23.70
2019-04-27T13:25:53.212Z,23.80
2019-04-27T13:28:21.978Z,23.80
2019-04-27T13:30:50.823Z,23.90
2019-04-27T13:33:19.593Z,23.90
2019-04-27T13:35:49.507Z,23.90
2019-04-27T13:38:18.361Z,23.80
2019-04-27T13:40:49.128Z,23.80
2019-04-27T13:43:19.568Z,23.60
2019-04-27T13:45:54.862Z,23.60
2019-04-27T13:48:36.315Z,23.40
2019-04-27T13:51:09.324Z,23.10
2019-04-27T13:53:39.783Z,23.00
2019-04-27T13:56:14.640Z,22.90
2019-04-27T13:58:44.161Z,22.90
2019-04-27T14:01:12.906Z,22.80
2019-04-27T14:03:41.629Z,22.80
2019-04-27T14:06:10.376Z,22.90
2019-04-27T14:08:39.171Z,22.90
2019-04-27T14:11:09.558Z,23.00
2019-04-27T14:13:39.876Z,23.00
2019-04-27T14:16:08.833Z,23.10
2019-04-27T14:18:38.401Z,23.30
2019-04-27T14:21:09.303Z,23.40
2019-04-27T14:23:38.608Z,23.50
2019-04-27T14:26:08.768Z,23.60
2019-04-27T14:28:38.264Z,23.60
2019-04-27T14:31:08.863Z,23.40
2019-04-27T14:33:39.596Z,23.50
2019-04-27T14:36:10.465Z,23.60
2019-04-27T14:38:39.253Z,23.80
2019-04-27T14:41:09.806Z,23.80
2019-04-27T14:43:38.582Z,23.50
2019-04-27T14:46:08.152Z,23.60
2019-04-27T14:48:39.248Z,23.60
2019-04-27T14:51:08.776Z,23.40
2019-04-27T14:53:38.572Z,23.00
2019-04-27T14:56:08.835Z,22.90
2019-04-27T14:58:38.057Z,23.00
2019-04-27T15:01:09.129Z,23.20
2019-04-27T15:03:37.845Z,23.50
2019-04-27T15:06:08.762Z,23.60
2019-04-27T15:08:38.401Z,23.90
2019-04-27T15:11:10.371Z,23.80
2019-04-27T15:13:43.091Z,23.60
2019-04-27T15:16:08.705Z,23.70
2019-04-27T15:18:43.374Z,23.90
2019-04-27T15:21:10.373Z,23.60
2019-04-27T15:23:41.272Z,23.70
2019-04-27T15:26:10.435Z,23.90
2019-04-27T15:28:44.791Z,24.10
2019-04-27T15:31:26.389Z,23.80
2019-04-27T15:33:54.796Z,24.00
2019-04-27T15:36:37.205Z,24.20
2019-04-27T15:39:30.469Z,24.30
2019-04-27T15:42:08.199Z,24.30
2019-04-27T15:44:36.524Z,24.10
2019-04-27T15:47:10.398Z,24.10
2019-04-27T15:49:35.856Z,24.40
2019-04-27T15:52:05.721Z,24.40
2019-04-27T15:54:34.449Z,24.30
2019-04-27T15:57:05.738Z,24.30
2019-04-27T15:59:39.495Z,24.30
2019-04-27T16:02:12.198Z,24.30
2019-04-27T16:04:38.133Z,23.90
2019-04-27T16:07:09.970Z,23.80
2019-04-27T16:09:38.831Z,23.70
2019-04-27T16:12:12.513Z,23.20
2019-04-27T16:14:43.929Z,23.20
2019-04-27T16:17:11.638Z,23.00
2019-04-27T16:19:46.804Z,23.20
2019-04-27T16:22:11.001Z,23.20
2019-04-27T16:24:39.819Z,23.10
2019-04-27T16:27:09.025Z,22.90
2019-04-27T16:29:38.984Z,22.80
2019-04-27T16:32:11.330Z,22.70
2019-04-27T16:34:41.194Z,22.40
2019-04-27T16:37:13.967Z,22.40
2019-04-27T16:39:45.675Z,22.40
2019-04-27T16:42:14.268Z,22.20
2019-04-27T16:44:49.475Z,22.10
2019-04-27T16:47:18.778Z,22.00
2019-04-27T16:49:48.388Z,21.80
2019-04-27T16:52:19.372Z,21.60
2019-04-27T16:54:56.284Z,21.30
2019-04-27T16:57:22.508Z,21.20
2019-04-27T16:59:57.939Z,21.10
2019-04-27T17:02:25.180Z,21.00
2019-04-27T17:04:55.517Z,20.90
2019-04-27T17:07:22.746Z,20.90
2019-04-27T17:09:51.513Z,20.70
2019-04-27T17:12:23.761Z,20.50
2019-04-27T17:15:10.649Z,20.50
2019-04-27T17:17:48.699Z,20.40
2019-04-27T17:20:20.992Z,20.20
2019-04-27T17:22:50.172Z,20.10
2019-04-27T17:25:20.113Z,20.00
2019-04-27T17:27:57.883Z,19.80
2019-04-27T17:30:26.478Z,19.70
2019-04-27T17:33:15.631Z,19.60
2019-04-27T17:35:45.349Z,19.50
2019-04-27T17:38:15.927Z,19.40
2019-04-27T17:40:45.254Z,19.20
2019-04-27T17:43:16.602Z,19.10
2019-04-27T17:45:48.583Z,19.00
2019-04-27T17:48:19.030Z,18.90
2019-04-27T17:50:48.978Z,18.80
2019-04-27T17:53:18.696Z,18.70
2019-04-27T17:55:48.459Z,18.70
2019-04-27T17:58:20.930Z,18.60
2019-04-27T18:00:50.472Z,18.50
2019-04-27T18:03:21.410Z,18.40
2019-04-27T18:05:52.039Z,18.30
2019-04-27T18:08:24.993Z,18.20
2019-04-27T18:10:53.697Z,18.20
2019-04-27T18:13:25.638Z,18.10
2019-04-27T18:15:55.105Z,18.00
2019-04-27T18:18:48.595Z,18.00
2019-04-27T18:21:19.651Z,17.90
2019-04-27T18:24:09.462Z,17.80
2019-04-27T18:26:49.306Z,17.80
2019-04-27T18:29:14.460Z,17.70
2019-04-27T18:31:46.374Z,17.70
2019-04-27T18:34:17.329Z,17.60
2019-04-27T18:36:46.810Z,17.60
2019-04-27T18:39:18.234Z,17.50
2019-04-27T18:41:50.563Z,17.40
2019-04-27T18:44:19.106Z,17.40
2019-04-27T18:46:49.114Z,17.30
2019-04-27T18:49:34.090Z,17.30
2019-04-27T18:52:18.558Z,17.30
2019-04-27T18:54:47.373Z,17.30
2019-04-27T18:57:16.457Z,17.20
2019-04-27T18:59:49.205Z,17.20
2019-04-27T19:02:19.359Z,17.20
2019-04-27T19:04:49.947Z,17.20
2019-04-27T19:07:19.949Z,17.20
2019-04-27T19:09:53.668Z,17.20
2019-04-27T19:12:24.753Z,17.10
2019-04-27T19:14:53.629Z,17.00
2019-04-27T19:17:22.366Z,17.00
2019-04-27T19:19:51.089Z,17.00
2019-04-27T19:22:20.631Z,17.00
2019-04-27T19:24:49.450Z,16.90
2019-04-27T19:27:22.679Z,16.90
2019-04-27T19:29:53.053Z,16.90
2019-04-27T19:32:21.872Z,16.90
2019-04-27T19:34:52.637Z,16.80
2019-04-27T19:37:22.212Z,16.80
2019-04-27T19:39:50.938Z,16.70
2019-04-27T19:42:21.514Z,16.70
2019-04-27T19:44:50.268Z,16.70
2019-04-27T19:47:19.088Z,16.70
2019-04-27T19:49:47.947Z,16.70
2019-04-27T19:52:18.326Z,16.70
2019-04-27T19:54:49.284Z,16.70
2019-04-27T19:57:31.134Z,16.70
2019-04-27T19:59:49.758Z,16.70
2019-04-27T20:02:20.300Z,16.70
2019-04-27T20:04:50.874Z,16.60
2019-04-27T20:07:19.634Z,16.70
2019-04-27T20:09:50.190Z,16.70
2019-04-27T20:12:21.281Z,16.80
2019-04-27T20:14:56.366Z,16.80
2019-04-27T20:17:26.608Z,16.80
2019-04-27T20:19:55.945Z,16.90
2019-04-27T20:22:24.758Z,17.10
2019-04-27T20:24:54.545Z,17.20
2019-04-27T20:27:24.480Z,17.20
2019-04-27T20:29:53.456Z,17.40
2019-04-27T20:32:24.658Z,17.50
2019-04-27T20:34:53.394Z,17.50
2019-04-27T20:37:22.190Z,17.40
2019-04-27T20:39:51.446Z,17.40
2019-04-27T20:42:21.074Z,17.40
2019-04-27T20:44:51.613Z,17.40
2019-04-27T20:47:20.583Z,17.40
2019-04-27T20:49:49.387Z,17.50
2019-04-27T20:52:20.878Z,17.40
2019-04-27T20:54:48.956Z,17.40
2019-04-27T20:57:17.767Z,17.50
2019-04-27T20:59:46.493Z,17.50
2019-04-27T21:02:33.399Z,17.60
2019-04-27T21:05:21.070Z,17.50
2019-04-27T21:07:53.007Z,17.40
2019-04-27T21:10:24.616Z,17.50
2019-04-27T21:12:52.509Z,17.50
2019-04-27T21:15:21.488Z,17.60
2019-04-27T21:17:51.223Z,17.70
2019-04-27T21:20:21.893Z,17.70
2019-04-27T21:22:53.438Z,17.70
2019-04-27T21:25:23.298Z,17.70
2019-04-27T21:27:51.977Z,17.70
2019-04-27T21:30:21.320Z,17.80
2019-04-27T21:32:50.870Z,17.80
2019-04-27T21:35:21.122Z,17.80
2019-04-27T21:37:51.156Z,17.70
2019-04-27T21:40:22.631Z,17.80
2019-04-27T21:42:51.548Z,17.70
2019-04-27T21:45:22.244Z,17.70
2019-04-27T21:47:51.946Z,17.80
2019-04-27T21:50:23.218Z,17.80
2019-04-27T21:53:05.529Z,17.80
2019-04-27T21:55:35.891Z,17.80
2019-04-27T21:58:04.602Z,17.70
2019-04-27T22:00:42.733Z,17.60
2019-04-27T22:03:12.489Z,17.60
2019-04-27T22:05:41.644Z,17.60
2019-04-27T22:08:11.697Z,17.50
2019-04-27T22:10:41.008Z,17.40
2019-04-27T22:13:09.688Z,17.40
2019-04-27T22:15:38.457Z,17.40
2019-04-27T22:18:07.196Z,17.40
2019-04-27T22:20:38.571Z,17.40
2019-04-27T22:23:15.796Z,17.40
2019-04-27T22:25:44.532Z,17.30
2019-04-27T22:28:13.271Z,17.30
2019-04-27T22:30:42.012Z,17.30
2019-04-27T22:33:11.278Z,17.20
2019-04-27T22:35:41.437Z,17.20
2019-04-27T22:38:11.853Z,17.30
2019-04-27T22:40:42.312Z,17.20
2019-04-27T22:43:29.140Z,17.20
2019-04-27T22:45:58.834Z,17.10
2019-04-27T22:48:27.636Z,17.00
2019-04-27T22:50:56.364Z,16.90
2019-04-27T22:53:25.102Z,16.90
2019-04-27T22:56:13.741Z,16.90
2019-04-27T22:58:58.587Z,16.80
2019-04-27T23:01:38.240Z,16.80
2019-04-27T23:04:08.625Z,16.70
2019-04-27T23:06:37.426Z,16.70
2019-04-27T23:09:06.465Z,16.60
2019-04-27T23:11:38.676Z,16.60
2019-04-27T23:14:07.412Z,16.60
2019-04-27T23:16:42.234Z,16.60
2019-04-27T23:19:11.009Z,16.50
2019-04-27T23:21:39.729Z,16.50
2019-04-27T23:24:08.446Z,16.50
2019-04-27T23:26:37.287Z,16.40
2019-04-27T23:29:13.589Z,16.40
2019-04-27T23:31:40.850Z,16.40
2019-04-27T23:34:09.600Z,16.30
2019-04-27T23:36:38.462Z,16.20
2019-04-27T23:39:08.182Z,16.20
2019-04-27T23:41:36.988Z,16.10
2019-04-27T23:44:05.713Z,16.10
2019-04-27T23:46:34.525Z,16.10
2019-04-27T23:49:03.264Z,16.00
2019-04-27T23:51:44.742Z,16.00
2019-04-27T23:54:13.439Z,15.90
2019-04-27T23:56:42.194Z,15.90
2019-04-27T23:59:23.785Z,15.80
